Time;durP1;ratioP1;P1;durP2;ratioP2;P2;SDS_P1;SDS_P2;PMS_P1;PMS_P2;Temp;Humidity;BMP_temperature;BMP_pressure;BME280_temperature;BME280_humidity;BME280_pressure;Samples;Min_cycle;Max_cycle;Signal;HPM_P1;HPM_P2
2023/08/03 00:00:59;;;;;;;;;5.00;1.00;;;;;23.42;100.00;99662.34;5038741;28;62366;-84
2023/08/03 00:03:25;;;;;;;;;5.67;2.00;;;;;23.38;100.00;99660.78;5029197;28;45812;-86
2023/08/03 00:05:50;;;;;;;;;2.00;0.67;;;;;23.35;100.00;99669.06;5038826;28;45442;-83
2023/08/03 00:08:15;;;;;;;;;3.00;1.33;;;;;23.36;100.00;99668.09;5039105;28;45495;-85
2023/08/03 00:10:41;;;;;;;;;3.33;1.00;;;;;23.42;100.00;99678.50;5033004;28;53317;-83
2023/08/03 00:13:06;;;;;;;;;5.00;0.67;;;;;23.48;100.00;99666.47;5037815;28;61746;-83
2023/08/03 00:15:32;;;;;;;;;1.00;1.00;;;;;23.50;100.00;99670.84;5025989;28;67805;-86
2023/08/03 00:17:57;;;;;;;;;3.67;1.67;;;;;23.47;100.00;99668.31;5039138;28;45467;-83
2023/08/03 00:20:22;;;;;;;;;5.00;2.00;;;;;23.52;100.00;99671.59;5039620;28;45282;-84
2023/08/03 00:22:48;;;;;;;;;6.00;2.00;;;;;23.48;100.00;99670.03;5038156;28;47097;-85
2023/08/03 00:25:13;;;;;;;;;4.00;1.00;;;;;23.46;100.00;99687.28;5020675;28;49455;-84
2023/08/03 00:27:38;;;;;;;;;2.33;2.00;;;;;23.49;100.00;99679.03;5012417;28;45388;-84
2023/08/03 00:30:04;;;;;;;;;2.67;1.67;;;;;23.49;100.00;99668.25;5020591;28;59358;-83
2023/08/03 00:32:30;;;;;;;;;10.00;1.00;;;;;23.42;100.00;99699.19;5036055;28;45628;-84
2023/08/03 00:34:55;;;;;;;;;3.33;1.00;;;;;23.44;100.00;99686.50;5057900;28;45368;-84
2023/08/03 00:37:21;;;;;;;;;9.00;1.00;;;;;23.44;100.00;99695.47;5021228;28;63507;-83
2023/08/03 00:39:46;;;;;;;;;3.00;1.00;;;;;23.49;100.00;99701.44;5020539;28;60328;-84
2023/08/03 00:42:11;;;;;;;;;3.33;2.00;;;;;23.56;100.00;99693.84;5036861;28;49703;-85
2023/08/03 00:44:37;;;;;;;;;1.00;1.00;;;;;23.51;100.00;99686.03;5029888;28;63422;-86
2023/08/03 00:47:03;;;;;;;;;1.00;1.00;;;;;23.60;100.00;99690.00;5012555;28;45436;-84
2023/08/03 00:49:28;;;;;;;;;4.00;2.00;;;;;23.53;100.00;99684.09;5039352;28;45197;-84
2023/08/03 00:51:57;;;;;;;;;2.00;0.33;;;;;23.55;100.00;99681.34;5019230;28;48334;-83
2023/08/03 00:54:23;;;;;;;;;4.67;2.67;;;;;23.62;100.00;99688.06;5002958;28;45330;-84
2023/08/03 00:56:49;;;;;;;;;4.67;1.00;;;;;23.54;100.00;99690.34;5031509;28;45443;-85
2023/08/03 00:59:14;;;;;;;;;2.00;1.00;;;;;23.54;100.00;99693.03;5022508;28;64083;-84
2023/08/03 01:01:43;;;;;;;;;6.00;1.33;;;;;23.59;100.00;99687.38;5037889;28;53507;-85
2023/08/03 01:04:10;;;;;;;;;2.00;2.00;;;;;23.57;100.00;99692.88;5010309;28;45623;-84
2023/08/03 01:06:35;;;;;;;;;3.67;2.00;;;;;23.55;100.00;99700.19;5017045;28;45216;-84
2023/08/03 01:09:02;;;;;;;;;3.67;1.00;;;;;23.55;100.00;99691.25;5039200;28;45299;-83
2023/08/03 01:11:28;;;;;;;;;3.67;0.00;;;;;23.53;100.00;99713.75;5030531;28;47737;-84
2023/08/03 01:13:54;;;;;;;;;6.33;1.67;;;;;23.47;100.00;99711.41;5016726;28;45374;-85
2023/08/03 01:16:19;;;;;;;;;5.33;2.00;;;;;23.40;100.00;99720.84;5036193;28;65194;-84
2023/08/03 01:18:45;;;;;;;;;2.33;0.67;;;;;23.34;100.00;99731.13;5010089;28;46276;-83
2023/08/03 01:21:11;;;;;;;;;2.33;0.00;;;;;23.32;100.00;99743.78;5028628;28;55413;-83
2023/08/03 01:23:36;;;;;;;;;4.00;1.33;;;;;23.14;100.00;99754.69;5003558;28;45433;-84
2023/08/03 01:26:02;;;;;;;;;2.33;2.33;;;;;23.02;100.00;99758.09;4984952;28;45372;-84
2023/08/03 01:28:27;;;;;;;;;3.67;1.33;;;;;22.99;100.00;99771.72;5013283;28;56126;-84
2023/08/03 01:30:52;;;;;;;;;4.33;1.33;;;;;22.86;100.00;99763.47;5019375;28;47780;-85
2023/08/03 01:33:18;;;;;;;;;1.33;0.33;;;;;22.83;100.00;99777.06;5024610;28;58900;-84
2023/08/03 01:35:44;;;;;;;;;2.00;2.00;;;;;22.73;100.00;99784.78;5022475;28;54807;-85
2023/08/03 01:38:12;;;;;;;;;3.00;0.33;;;;;22.59;100.00;99781.16;5009265;28;45531;-83
2023/08/03 01:40:37;;;;;;;;;1.00;1.00;;;;;22.50;100.00;99790.59;5010165;28;45707;-84
2023/08/03 01:43:02;;;;;;;;;3.00;0.33;;;;;22.40;100.00;99797.44;5003122;28;65911;-85
2023/08/03 01:45:28;;;;;;;;;2.00;2.00;;;;;22.33;100.00;99783.44;5030313;28;63069;-83
2023/08/03 01:47:53;;;;;;;;;2.33;1.00;;;;;22.32;100.00;99796.97;5010390;28;59634;-84
2023/08/03 01:50:18;;;;;;;;;5.00;2.00;;;;;22.36;100.00;99804.78;5017799;28;48473;-83
2023/08/03 01:52:44;;;;;;;;;2.00;2.00;;;;;22.42;100.00;99782.06;5036721;28;66840;-85
2023/08/03 01:55:09;;;;;;;;;4.00;1.00;;;;;22.44;100.00;99793.63;5019859;28;45494;-88
2023/08/03 01:57:35;;;;;;;;;3.00;1.00;;;;;22.44;100.00;99796.31;5006005;28;45299;-85
2023/08/03 02:00:00;;;;;;;;;3.00;1.67;;;;;22.42;100.00;99796.38;5002028;28;69696;-85
2023/08/03 02:02:25;;;;;;;;;6.00;1.33;;;;;22.43;100.00;99798.13;5038131;28;45336;-85
2023/08/03 02:04:51;;;;;;;;;2.67;1.00;;;;;22.40;100.00;99802.81;5034570;28;62019;-84
2023/08/03 02:07:18;;;;;;;;;4.00;1.00;;;;;22.46;100.00;99797.09;5027088;28;59724;-83
2023/08/03 02:09:43;;;;;;;;;2.33;1.00;;;;;22.46;100.00;99799.78;5009420;28;46063;-84
2023/08/03 02:12:08;;;;;;;;;1.00;1.00;;;;;22.50;100.00;99801.34;4991804;28;45307;-84
2023/08/03 02:14:34;;;;;;;;;3.33;1.00;;;;;22.46;100.00;99806.03;5014155;28;45235;-87
2023/08/03 02:16:59;;;;;;;;;2.67;1.00;;;;;22.38;100.00;99808.28;5018269;28;45647;-84
2023/08/03 02:19:25;;;;;;;;;5.00;1.00;;;;;22.38;100.00;99813.66;5000357;28;47493;-84
2023/08/03 02:21:50;;;;;;;;;1.00;0.67;;;;;22.45;100.00;99803.44;5018328;28;71612;-85
2023/08/03 02:24:16;;;;;;;;;1.00;1.00;;;;;22.45;100.00;99816.88;5031022;28;58131;-85
2023/08/03 02:26:41;;;;;;;;;2.00;0.67;;;;;22.41;100.00;99805.41;5040272;28;61188;-85
2023/08/03 02:29:06;;;;;;;;;1.00;1.00;;;;;22.51;100.00;99829.13;5024731;28;66588;-84
2023/08/03 02:31:31;;;;;;;;;2.00;0.00;;;;;22.46;100.00;99816.78;5023846;28;59662;-84
2023/08/03 02:33:57;;;;;;;;;0.33;0.33;;;;;22.40;100.00;99819.81;5023704;28;61850;-82
2023/08/03 02:36:22;;;;;;;;;0.33;0.33;;;;;22.32;100.00;99829.22;5037036;28;55515;-84
2023/08/03 02:38:47;;;;;;;;;1.00;1.00;;;;;22.29;100.00;99830.28;5034139;28;63681;-84
2023/08/03 02:41:13;;;;;;;;;4.67;0.00;;;;;22.29;100.00;99822.22;5036739;28;65173;-83
2023/08/03 02:43:38;;;;;;;;;2.67;0.67;;;;;22.30;100.00;99813.19;5020607;28;61710;-86
2023/08/03 02:46:03;;;;;;;;;4.00;1.00;;;;;22.33;100.00;99829.16;5012297;28;53283;-84
2023/08/03 02:48:29;;;;;;;;;4.00;1.00;;;;;22.35;100.00;99821.88;5009264;28;60787;-84
2023/08/03 02:50:54;;;;;;;;;1.00;1.00;;;;;22.36;100.00;99825.44;5029617;28;62706;-84
2023/08/03 02:53:19;;;;;;;;;3.67;0.67;;;;;22.37;100.00;99836.13;5032725;28;55550;-85
2023/08/03 02:55:45;;;;;;;;;2.67;0.00;;;;;22.32;100.00;99838.19;5018951;28;47289;-83
2023/08/03 02:58:10;;;;;;;;;2.67;0.67;;;;;22.31;100.00;99836.44;5007166;28;60472;-84
2023/08/03 03:00:35;;;;;;;;;1.00;1.00;;;;;22.34;100.00;99854.25;5038212;28;45273;-85
2023/08/03 03:03:01;;;;;;;;;0.67;0.67;;;;;22.27;100.00;99859.09;5011356;28;59512;-85
2023/08/03 03:05:26;;;;;;;;;2.00;0.00;;;;;22.21;100.00;99844.16;5024535;28;57633;-84
2023/08/03 03:07:51;;;;;;;;;3.00;1.00;;;;;22.18;100.00;99848.81;5027735;28;47235;-83
2023/08/03 03:10:17;;;;;;;;;1.00;0.00;;;;;22.18;100.00;99851.50;5036578;28;45294;-85
2023/08/03 03:12:42;;;;;;;;;0.00;0.00;;;;;22.10;100.00;99842.91;5033963;28;46584;-84
2023/08/03 03:15:08;;;;;;;;;0.00;0.00;;;;;22.16;100.00;99845.34;5027635;28;46813;-84
2023/08/03 03:17:33;;;;;;;;;2.67;0.00;;;;;22.20;100.00;99847.75;4985150;28;47812;-83
2023/08/03 03:19:59;;;;;;;;;0.67;0.67;;;;;22.13;100.00;99849.03;5035703;28;62502;-84
2023/08/03 03:22:24;;;;;;;;;1.67;1.00;;;;;22.21;100.00;99844.16;5013703;28;62061;-85
2023/08/03 03:24:49;;;;;;;;;0.00;0.00;;;;;22.18;100.00;99846.97;4998853;28;53525;-85
2023/08/03 03:27:15;;;;;;;;;1.00;1.00;;;;;22.21;100.00;99849.53;5032631;28;66396;-85
2023/08/03 03:29:40;;;;;;;;;0.33;0.33;;;;;22.21;100.00;99862.97;5010276;28;65818;-84
2023/08/03 03:32:06;;;;;;;;;3.00;0.00;;;;;22.23;100.00;99868.25;5026200;28;45432;-83
2023/08/03 03:34:31;;;;;;;;;3.00;0.00;;;;;22.27;100.00;99866.28;4994688;28;45651;-84
2023/08/03 03:36:56;;;;;;;;;0.00;0.00;;;;;22.20;100.00;99863.03;5024341;28;66543;-83
2023/08/03 03:39:22;;;;;;;;;0.00;0.00;;;;;22.26;100.00;99865.38;5016265;28;45379;-83
2023/08/03 03:41:47;;;;;;;;;0.00;0.00;;;;;22.18;100.00;99859.56;5038889;28;59017;-84
2023/08/03 03:44:12;;;;;;;;;2.33;1.00;;;;;22.22;100.00;99870.09;5012081;28;55480;-84
2023/08/03 03:46:37;;;;;;;;;0.33;0.33;;;;;22.25;100.00;99866.34;5009202;28;67618;-84
2023/08/03 03:49:03;;;;;;;;;0.00;0.00;;;;;22.29;100.00;99867.94;5015907;28;64180;-85
2023/08/03 03:51:28;;;;;;;;;1.33;1.00;;;;;22.28;100.00;99866.19;5016981;28;64912;-86
2023/08/03 03:53:53;;;;;;;;;0.33;0.33;;;;;22.33;100.00;99872.22;5035450;28;59864;-83
2023/08/03 03:56:19;;;;;;;;;0.00;0.00;;;;;22.39;100.00;99874.56;5032626;28;68478;-83
2023/08/03 03:58:44;;;;;;;;;2.00;0.67;;;;;22.42;100.00;99873.50;5022936;28;45436;-84
2023/08/03 04:01:09;;;;;;;;;3.00;0.00;;;;;22.45;100.00;99886.81;5013852;28;56075;-86
2023/08/03 04:03:35;;;;;;;;;1.00;0.00;;;;;22.47;100.00;99880.38;5009084;28;64020;-84
2023/08/03 04:06:00;;;;;;;;;1.00;0.00;;;;;22.46;100.00;99877.78;5021779;28;65954;-84
2023/08/03 04:08:25;;;;;;;;;2.00;0.00;;;;;22.42;100.00;99881.59;5029772;28;45405;-84
2023/08/03 04:10:51;;;;;;;;;0.00;0.00;;;;;22.39;100.00;99879.94;5028991;28;45274;-84
2023/08/03 04:13:16;;;;;;;;;3.00;0.00;;;;;22.42;100.00;99885.16;5001798;28;60445;-84
2023/08/03 04:15:41;;;;;;;;;4.00;1.00;;;;;22.41;100.00;99893.31;5032727;28;67276;-84
2023/08/03 04:18:07;;;;;;;;;0.00;0.00;;;;;22.34;100.00;99892.78;5028569;28;45313;-84
2023/08/03 04:20:32;;;;;;;;;0.00;0.00;;;;;22.33;100.00;99891.03;4999928;28;62649;-84
2023/08/03 04:22:57;;;;;;;;;0.00;0.00;;;;;22.38;100.00;99886.28;5023480;28;45318;-85
2023/08/03 04:25:23;;;;;;;;;2.00;0.67;;;;;22.34;100.00;99881.13;5016180;28;68362;-85
2023/08/03 04:27:48;;;;;;;;;2.00;1.00;;;;;22.42;100.00;99886.97;5045932;28;64237;-83
2023/08/03 04:30:13;;;;;;;;;2.00;2.00;;;;;22.46;100.00;99889.41;5017800;28;45468;-84
2023/08/03 04:32:41;;;;;;;;;0.67;0.00;;;;;22.39;100.00;99890.72;5033068;28;57438;-84
2023/08/03 04:35:09;;;;;;;;;2.67;1.00;;;;;22.39;100.00;99890.72;5035241;28;46999;-84
2023/08/03 04:37:34;;;;;;;;;1.33;1.33;;;;;22.43;100.00;99888.72;5011215;28;45447;-84
2023/08/03 04:39:59;;;;;;;;;0.33;0.33;;;;;22.40;100.00;99889.75;5011731;28;45358;-84
2023/08/03 04:42:25;;;;;;;;;5.67;0.33;;;;;22.44;100.00;99885.94;5014347;28;59849;-85
2023/08/03 04:44:50;;;;;;;;;1.67;0.00;;;;;22.46;100.00;99899.31;5036299;28;71661;-85
2023/08/03 04:47:16;;;;;;;;;1.33;0.33;;;;;22.43;100.00;99894.97;5017024;28;68337;-84
2023/08/03 04:49:41;;;;;;;;;1.00;0.33;;;;;22.43;100.00;99897.66;5042438;28;45217;-84
2023/08/03 04:52:06;;;;;;;;;1.67;1.00;;;;;22.48;100.00;99909.06;5007604;28;59550;-84
2023/08/03 04:54:32;;;;;;;;;2.00;1.00;;;;;22.42;100.00;99905.78;5020157;28;46312;-85
2023/08/03 04:56:57;;;;;;;;;0.33;0.33;;;;;22.49;100.00;99897.34;5024372;28;60676;-83
2023/08/03 04:59:22;;;;;;;;;2.00;1.00;;;;;22.55;100.00;99901.53;5019914;28;45448;-85
2023/08/03 05:01:48;;;;;;;;;1.00;0.00;;;;;22.58;100.00;99903.16;5032996;28;58382;-84
2023/08/03 05:04:13;;;;;;;;;1.00;0.33;;;;;22.57;100.00;99902.31;5028805;28;68767;-83
2023/08/03 05:06:38;;;;;;;;;0.33;0.33;;;;;22.55;100.00;99900.66;5028790;28;58570;-83
2023/08/03 05:09:04;;;;;;;;;5.33;0.67;;;;;22.55;100.00;99914.97;5037074;28;60851;-83
2023/08/03 05:11:29;;;;;;;;;1.33;0.33;;;;;22.57;100.00;99912.19;5031840;28;54120;-84
2023/08/03 05:13:54;;;;;;;;;1.00;1.00;;;;;22.56;100.00;99916.72;5031977;28;66815;-84
2023/08/03 05:16:24;;;;;;;;;7.67;0.67;;;;;22.53;100.00;99924.06;5037618;28;67001;-85
2023/08/03 05:18:50;;;;;;;;;2.00;1.00;;;;;22.54;100.00;99953.59;5038324;28;45495;-84
2023/08/03 05:21:15;;;;;;;;;2.00;1.00;;;;;22.40;100.00;99918.47;5138671;22;45499;-84
2023/08/03 05:23:41;;;;;;;;;3.33;1.00;;;;;22.39;100.00;99925.66;5018123;28;46002;-86
2023/08/03 05:26:06;;;;;;;;;0.67;0.67;;;;;22.36;100.00;99936.56;5015899;28;58925;-83
2023/08/03 05:28:32;;;;;;;;;1.67;1.00;;;;;22.38;100.00;99940.06;5016418;28;62084;-85
2023/08/03 05:30:57;;;;;;;;;3.00;2.00;;;;;22.36;100.00;99941.97;5017464;28;45298;-86
2023/08/03 05:33:22;;;;;;;;;2.33;2.00;;;;;22.32;100.00;99947.56;5018071;28;45830;-84
2023/08/03 05:35:48;;;;;;;;;1.00;1.00;;;;;22.34;100.00;99943.88;5017485;28;45443;-85
2023/08/03 05:38:16;;;;;;;;;1.33;1.00;;;;;22.37;100.00;99946.41;5017763;28;45486;-84
2023/08/03 05:40:42;;;;;;;;;3.67;0.67;;;;;22.44;100.00;99941.56;5013765;28;45334;-84
2023/08/03 05:43:12;;;;;;;;;5.00;0.00;;;;;22.40;100.00;99946.25;5016175;28;68224;-85
2023/08/03 05:45:44;;;;;;;;;3.00;1.67;;;;;22.45;100.00;99938.81;5017860;28;45609;-86
2023/08/03 05:48:18;;;;;;;;;3.00;1.00;;;;;22.45;100.00;99952.25;5016265;28;45427;-84
2023/08/03 05:50:49;;;;;;;;;3.67;1.00;;;;;22.51;100.00;99955.56;5017120;28;45441;-85
2023/08/03 05:53:15;;;;;;;;;3.00;1.67;;;;;22.47;100.00;99966.47;5015787;28;46299;-85
2023/08/03 05:55:41;;;;;;;;;3.00;1.00;;;;;22.50;100.00;99968.16;5000355;28;45642;-84
2023/08/03 05:58:10;;;;;;;;;3.67;1.33;;;;;22.56;100.00;99962.44;4999535;28;45495;-86
2023/08/03 06:00:35;;;;;;;;;2.67;1.00;;;;;22.54;100.00;99960.81;5016979;28;45428;-86
2023/08/03 06:03:00;;;;;;;;;2.00;1.33;;;;;22.59;100.00;99961.44;5019117;28;68103;-85
2023/08/03 06:05:35;;;;;;;;;1.00;1.00;;;;;22.65;100.00;99963.81;5016228;28;45269;-85
2023/08/03 06:08:01;;;;;;;;;2.00;0.33;;;;;22.65;100.00;99977.25;5033068;28;45558;-83
2023/08/03 06:10:27;;;;;;;;;0.33;0.33;;;;;22.62;100.00;99970.19;5000005;28;45457;-84
2023/08/03 06:12:52;;;;;;;;;1.33;0.33;;;;;22.63;100.00;99971.06;5015550;28;46821;-85
2023/08/03 06:15:18;;;;;;;;;2.00;0.33;;;;;;;;5015878;28;45305;-83
2023/08/03 06:17:43;;;;;;;;;0.33;0.33;;;;;22.63;100.00;99974.63;5017393;28;45389;-84
2023/08/03 06:20:12;;;;;;;;;1.67;0.67;;;;;22.69;100.00;99981.50;5016885;28;60773;-84
2023/08/03 06:22:37;;;;;;;;;5.00;0.33;;;;;22.74;100.00;99982.13;5032518;28;46730;-86
2023/08/03 06:25:07;;;;;;;;;1.00;0.00;;;;;22.77;100.00;99979.28;5029168;28;53520;-84
2023/08/03 06:27:33;;;;;;;;;3.00;1.33;;;;;22.80;100.00;99984.53;5030262;28;45467;-87
2023/08/03 06:29:58;;;;;;;;;1.33;1.33;;;;;22.89;100.00;99985.88;4999799;28;45223;-83
2023/08/03 06:32:27;;;;;;;;;1.00;1.00;;;;;22.86;100.00;99981.50;5017007;28;45512;-85
2023/08/03 06:34:54;;;;;;;;;0.33;0.33;;;;;22.82;100.00;99981.75;5009082;28;45375;-87
2023/08/03 06:37:20;;;;;;;;;2.00;2.00;;;;;22.74;100.00;99985.72;5016034;28;45171;-84
2023/08/03 06:39:48;;;;;;;;;1.33;1.33;;;;;22.79;100.00;99990.84;5015139;28;63629;-86
2023/08/03 06:42:14;;;;;;;;;2.00;2.00;;;;;22.82;100.00;99993.38;5032266;28;46466;-84
2023/08/03 06:44:39;;;;;;;;;4.00;1.00;;;;;22.86;100.00;100005.72;5032182;28;45334;-84
2023/08/03 06:47:05;;;;;;;;;4.00;3.00;;;;;22.87;100.00;100010.16;5031843;28;61450;-85
2023/08/03 06:49:30;;;;;;;;;5.00;1.00;;;;;22.93;100.00;100006.31;5032546;28;46331;-85
2023/08/03 06:51:56;;;;;;;;;2.67;1.33;;;;;22.88;100.00;100019.13;5027774;28;47757;-85
2023/08/03 06:54:21;;;;;;;;;2.00;2.00;;;;;22.88;100.00;100025.38;5017166;28;45400;-85
2023/08/03 06:56:46;;;;;;;;;2.00;1.33;;;;;22.92;100.00;100035.06;5012437;28;45294;-85
2023/08/03 06:59:19;;;;;;;;;3.00;1.00;;;;;22.86;100.00;100027.28;5008281;28;45342;-86
2023/08/03 07:01:44;;;;;;;;;1.67;0.33;;;;;22.89;100.00;100048.66;5018819;28;46091;-85
2023/08/03 07:04:09;;;;;;;;;5.33;2.00;;;;;22.92;100.00;100037.75;5013580;28;45519;-85
2023/08/03 07:06:35;;;;;;;;;2.33;2.00;;;;;22.91;100.00;100037.84;5014659;28;62401;-86
2023/08/03 07:09:00;;;;;;;;;3.00;2.00;;;;;22.95;100.00;100042.94;5015459;28;61303;-86
2023/08/03 07:11:25;;;;;;;;;2.00;2.00;;;;;22.98;100.00;100052.69;5013746;28;66129;-84
2023/08/03 07:13:51;;;;;;;;;4.67;0.67;;;;;22.95;100.00;100048.31;5016445;28;45317;-83
2023/08/03 07:16:16;;;;;;;;;4.00;1.00;;;;;22.87;100.00;100055.06;5015444;28;53158;-85
2023/08/03 07:18:41;;;;;;;;;3.00;0.67;;;;;22.85;100.00;100060.53;5016738;28;45392;-85
2023/08/03 07:21:07;;;;;;;;;3.00;2.33;;;;;22.94;100.00;100054.66;5015601;28;45788;-86
2023/08/03 07:23:33;;;;;;;;;2.33;1.33;;;;;22.98;100.00;100063.47;5030102;28;45301;-84
2023/08/03 07:25:59;;;;;;;;;3.00;2.00;;;;;23.07;100.00;100068.38;5014181;28;45559;-85
2023/08/03 07:28:25;;;;;;;;;2.00;2.00;;;;;23.04;100.00;100062.28;5008703;28;55069;-85
2023/08/03 07:30:50;;;;;;;;;1.33;1.33;;;;;23.03;100.00;100068.63;5014617;28;64088;-85
2023/08/03 07:33:15;;;;;;;;;6.67;0.33;;;;;23.10;100.00;100087.06;5015839;28;45440;-84
2023/08/03 07:35:41;;;;;;;;;3.00;2.00;;;;;23.18;100.00;100078.59;5015916;28;57037;-85
2023/08/03 07:38:06;;;;;;;;;2.00;2.00;;;;;23.19;100.00;100065.03;5014243;28;59116;-86
2023/08/03 07:40:31;;;;;;;;;3.33;1.33;;;;;23.24;100.00;100080.94;5016058;28;48113;-83
2023/08/03 07:42:57;;;;;;;;;0.33;0.33;;;;;23.19;100.00;100078.50;5013434;28;62457;-86
2023/08/03 07:45:22;;;;;;;;;4.67;1.67;;;;;23.29;100.00;100081.56;5014199;28;58540;-85
2023/08/03 07:47:47;;;;;;;;;1.33;1.00;;;;;23.30;100.00;100071.66;5015613;28;59497;-85
2023/08/03 07:50:13;;;;;;;;;0.67;0.67;;;;;23.31;100.00;100086.88;4996856;28;71694;-87
2023/08/03 07:52:39;;;;;;;;;2.67;1.00;;;;;23.22;100.00;100082.84;5014126;28;45459;-85
2023/08/03 07:55:05;;;;;;;;;2.33;0.67;;;;;23.20;100.00;100103.59;5014482;28;45555;-84
2023/08/03 07:57:30;;;;;;;;;5.33;1.33;;;;;23.22;100.00;100101.69;5016141;28;45595;-85
2023/08/03 07:59:55;;;;;;;;;1.33;1.33;;;;;23.17;100.00;100111.84;5030883;28;46405;-85
2023/08/03 08:02:21;;;;;;;;;1.67;1.67;;;;;23.14;100.00;100122.78;5035244;28;45521;-84
2023/08/03 08:04:50;;;;;;;;;2.67;1.33;;;;;23.18;100.00;100114.47;5013740;28;60898;-86
2023/08/03 08:07:16;;;;;;;;;5.00;1.67;;;;;23.17;100.00;100123.50;5014657;28;45290;-86
2023/08/03 08:09:42;;;;;;;;;2.00;1.67;;;;;23.22;100.00;100132.22;5015872;28;45749;-86
2023/08/03 08:12:07;;;;;;;;;3.00;1.67;;;;;23.27;100.00;100131.94;5014476;28;45416;-84
2023/08/03 08:14:33;;;;;;;;;2.00;1.67;;;;;23.20;100.00;100131.41;5018043;28;45436;-85
2023/08/03 08:16:59;;;;;;;;;2.67;1.00;;;;;23.21;100.00;100124.19;5017929;28;45307;-87
2023/08/03 08:19:24;;;;;;;;;1.33;0.67;;;;;23.22;100.00;100128.63;5019096;28;45750;-87
2023/08/03 08:21:50;;;;;;;;;4.67;1.33;;;;;23.25;100.00;100131.16;5018915;28;45408;-85
2023/08/03 08:24:15;;;;;;;;;0.67;0.67;;;;;23.34;100.00;100146.00;5018196;28;61296;-85
2023/08/03 08:26:40;;;;;;;;;0.33;0.33;;;;;23.45;100.00;100141.75;5017882;28;45431;-85
2023/08/03 08:29:06;;;;;;;;;4.33;2.00;;;;;23.48;100.00;100133.50;5017114;28;45795;-87
2023/08/03 08:31:32;;;;;;;;;2.67;2.67;;;;;23.57;100.00;100140.22;5018863;28;45262;-85
2023/08/03 08:33:57;;;;;;;;;1.00;1.00;;;;;23.58;100.00;100135.72;5017667;28;45289;-84
2023/08/03 08:36:22;;;;;;;;;3.00;1.00;;;;;23.61;100.00;100144.50;5019068;28;45515;-86
2023/08/03 08:38:48;;;;;;;;;2.00;1.33;;;;;23.72;100.00;100149.34;5016592;28;62414;-84
2023/08/03 08:41:14;;;;;;;;;2.67;0.67;;;;;23.76;100.00;100148.25;5034079;28;50029;-84
2023/08/03 08:43:40;;;;;;;;;3.67;1.67;;;;;23.80;100.00;100144.41;5017475;28;45326;-85
2023/08/03 08:46:06;;;;;;;;;3.00;1.00;;;;;23.90;100.00;100144.78;5017460;28;45233;-84
2023/08/03 08:48:33;;;;;;;;;1.00;1.00;;;;;23.89;100.00;100143.03;5017274;28;47946;-84
2023/08/03 08:51:00;;;;;;;;;2.67;1.00;;;;;23.89;100.00;100152.00;5000699;28;45384;-86
2023/08/03 08:53:25;;;;;;;;;1.00;1.00;;;;;23.95;100.00;100148.09;5034387;28;45297;-84
2023/08/03 08:55:50;;;;;;;;;2.00;1.67;;;;;23.91;100.00;100147.38;5017053;28;58169;-85
2023/08/03 08:58:16;;;;;;;;;1.00;1.00;;;;;24.03;100.00;100162.03;5016443;28;68777;-84
2023/08/03 09:00:46;;;;;;;;;2.00;2.00;;;;;24.17;100.00;100167.50;5018829;28;45324;-86
2023/08/03 09:03:12;;;;;;;;;1.67;1.00;;;;;24.28;100.00;100158.81;5038098;28;45478;-85
2023/08/03 09:05:39;;;;;;;;;1.00;1.00;;;;;24.28;100.00;100161.50;5017150;28;45306;-85
2023/08/03 09:08:16;;;;;;;;;3.67;2.00;;;;;24.20;100.00;100163.78;5030145;28;48386;-85
2023/08/03 09:10:53;;;;;;;;;5.00;2.00;;;;;24.12;100.00;100174.13;5017210;28;45499;-86
2023/08/03 09:13:32;;;;;;;;;3.00;1.67;;;;;24.01;100.00;100180.09;5031726;28;45302;-85
2023/08/03 09:15:58;;;;;;;;;3.00;1.00;;;;;23.96;100.00;100187.56;5030965;28;45547;-85
2023/08/03 09:18:29;;;;;;;;;3.33;2.00;;;;;23.96;100.00;100183.06;5016868;28;45428;-86
2023/08/03 09:21:09;;;;;;;;;3.00;2.00;;;;;24.04;100.00;100185.34;5013498;28;45582;-84
2023/08/03 09:23:36;;;;;;;;;3.00;0.00;;;;;24.14;100.00;100202.75;5018662;28;45418;-84
2023/08/03 09:26:02;;;;;;;;;2.00;1.00;;;;;24.23;100.00;100191.44;5032690;28;45396;-86
2023/08/03 09:28:38;;;;;;;;;3.00;1.00;;;;;24.41;100.00;100204.91;5016677;28;48831;-85
2023/08/03 09:31:04;;;;;;;;;0.33;0.33;;;;;24.51;100.00;100196.22;4999659;28;45520;-85
2023/08/03 09:33:30;;;;;;;;;3.00;1.00;;;;;24.63;100.00;100194.63;5016708;28;45253;-85
2023/08/03 09:36:11;;;;;;;;;1.00;1.00;;;;;24.67;100.00;100193.50;5000591;28;47057;-86
2023/08/03 09:38:40;;;;;;;;;5.33;1.00;;;;;24.70;100.00;100189.75;5029477;28;46709;-86
2023/08/03 09:41:06;;;;;;;;;2.00;1.00;;;;;24.80;100.00;100190.94;4999544;28;45783;-88
2023/08/03 09:43:32;;;;;;;;;2.00;2.00;;;;;24.76;100.00;100189.38;5016683;28;45488;-84
2023/08/03 09:45:58;;;;;;;;;3.00;2.67;;;;;24.78;100.00;100196.47;5017120;28;49964;-84
2023/08/03 09:48:24;;;;;;;;;2.00;2.00;;;;;24.80;100.00;100193.66;5016431;28;45979;-85
2023/08/03 09:50:52;;;;;;;;;1.00;1.00;;;;;24.91;100.00;100190.31;5016975;28;45345;-85
2023/08/03 09:53:44;;;;;;;;;2.67;1.00;;;;;25.01;100.00;100195.09;5017534;28;45448;-84
2023/08/03 09:56:11;;;;;;;;;1.00;1.00;;;;;25.23;100.00;100200.13;5017848;28;45412;-86
2023/08/03 09:58:51;;;;;;;;;1.00;1.00;;;;;25.49;100.00;100185.03;5016138;28;47775;-83
2023/08/03 10:01:22;;;;;;;;;1.00;1.00;;;;;25.69;100.00;100215.41;5016346;28;45337;-84
2023/08/03 10:03:51;;;;;;;;;1.33;1.33;;;;;25.65;100.00;100192.22;5020107;28;45534;-84
2023/08/03 10:06:17;;;;;;;;;1.00;1.00;;;;;25.71;100.00;100189.13;5016786;28;45340;-87
2023/08/03 10:08:56;;;;;;;;;4.00;1.00;;;;;25.72;100.00;100196.25;5017677;28;46330;-84
2023/08/03 10:11:22;;;;;;;;;1.67;1.00;;;;;25.67;100.00;100195.69;5031386;28;45436;-89
2023/08/03 10:13:50;;;;;;;;;0.00;0.00;;;;;25.57;100.00;100201.69;5016637;28;45538;-85
2023/08/03 10:16:19;;;;;;;;;2.33;1.00;;;;;25.56;100.00;100201.75;5017073;28;45479;-83
2023/08/03 10:18:45;;;;;;;;;0.00;0.00;;;;;25.54;100.00;100201.84;5013443;28;72648;-84
2023/08/03 10:21:11;;;;;;;;;2.00;0.00;;;;;25.59;100.00;100213.25;5031543;28;63744;-81
2023/08/03 10:23:39;;;;;;;;;1.33;0.00;;;;;25.55;100.00;100206.28;5015724;28;60979;-83
2023/08/03 10:26:05;;;;;;;;;0.33;0.33;;;;;25.44;100.00;100216.03;5016492;28;45493;-85
2023/08/03 10:28:40;;;;;;;;;2.00;1.00;;;;;25.28;100.00;100218.78;5014392;28;46969;-83
2023/08/03 10:31:07;;;;;;;;;2.00;2.00;;;;;25.07;100.00;100232.59;5018498;28;45523;-83
2023/08/03 10:33:51;;;;;;;;;0.33;0.33;;;;;25.02;100.00;100231.94;5017336;28;45215;-83
2023/08/03 10:36:29;;;;;;;;;2.00;0.33;;;;;24.97;100.00;100234.03;5013631;28;45496;-84
2023/08/03 10:38:59;;;;;;;;;1.00;1.00;;;;;24.93;100.00;100232.50;5015934;28;46505;-83
2023/08/03 10:41:38;;;;;;;;;0.00;0.00;;;;;24.92;100.00;100237.97;5029344;28;46320;-86
2023/08/03 10:44:09;;;;;;;;;1.00;1.00;;;;;24.79;100.00;100237.81;5015870;28;45351;-84
2023/08/03 10:46:34;;;;;;;;;3.00;1.00;;;;;24.79;100.00;100248.63;5016785;28;45147;-83
2023/08/03 10:49:23;;;;;;;;;2.00;2.00;;;;;24.76;100.00;100254.19;5032206;28;48887;-84
2023/08/03 10:51:55;;;;;;;;;1.33;1.00;;;;;24.73;100.00;100251.69;5016427;28;45462;-82
2023/08/03 10:54:30;;;;;;;;;3.00;1.67;;;;;24.66;100.00;100250.25;5016348;28;45336;-84
2023/08/03 10:57:13;;;;;;;;;3.00;1.00;;;;;24.68;100.00;100248.38;5017102;28;46836;-83
2023/08/03 10:59:39;;;;;;;;;1.00;1.00;;;;;24.67;100.00;100255.59;5015439;28;46077;-83
2023/08/03 11:02:25;;;;;;;;;0.67;0.67;;;;;24.77;100.00;100258.66;5014754;28;45455;-83
2023/08/03 11:04:55;;;;;;;;;1.00;1.00;;;;;24.81;100.00;100265.59;5017497;28;45320;-84
2023/08/03 11:07:34;;;;;;;;;0.67;0.67;;;;;24.87;100.00;100262.53;5015420;28;45650;-82
2023/08/03 11:10:01;;;;;;;;;2.00;0.00;;;;;24.94;100.00;100253.16;5014660;28;46038;-85
2023/08/03 11:12:27;;;;;;;;;0.33;0.33;;;;;25.07;100.00;100261.44;5016687;28;45332;-85
2023/08/03 11:14:54;;;;;;;;;0.00;0.00;;;;;25.15;100.00;100266.41;5007759;28;45385;-83
2023/08/03 11:17:22;;;;;;;;;0.67;0.67;;;;;25.21;100.00;100260.66;5029928;28;45355;-83
2023/08/03 11:19:47;;;;;;;;;1.00;1.00;;;;;25.29;100.00;100264.63;5006378;28;46345;-84